createdAt,value
2019-02-15T00:00:39.061Z,99.90
2019-02-15T00:03:08.749Z,99.90
2019-02-15T00:05:37.538Z,99.90
2019-02-15T00:08:06.220Z,99.90
2019-02-15T00:10:35.546Z,99.90
2019-02-15T00:13:13.059Z,99.90
2019-02-15T00:15:34.743Z,99.90
2019-02-15T00:18:05.331Z,99.90
2019-02-15T00:20:41.529Z,99.90
2019-02-15T00:23:10.206Z,99.90
2019-02-15T00:25:38.988Z,99.90
2019-02-15T00:28:07.742Z,99.90
2019-02-15T00:30:36.430Z,99.90
2019-02-15T00:33:05.118Z,99.90
2019-02-15T00:35:33.849Z,99.90
2019-02-15T00:38:02.705Z,99.90
2019-02-15T00:40:31.377Z,99.90
2019-02-15T00:43:00.016Z,99.90
2019-02-15T00:45:33.408Z,99.90
2019-02-15T00:48:03.733Z,99.90
2019-02-15T00:50:50.453Z,99.90
2019-02-15T00:53:20.843Z,99.90
2019-02-15T00:55:51.282Z,99.90
2019-02-15T00:58:30.325Z,99.90
2019-02-15T01:01:19.046Z,99.90
2019-02-15T01:03:52.085Z,99.90
2019-02-15T01:06:22.847Z,99.90
2019-02-15T01:08:55.855Z,99.90
2019-02-15T01:11:28.695Z,99.90
2019-02-15T01:13:57.460Z,99.90
2019-02-15T01:16:30.627Z,99.90
2019-02-15T01:18:59.300Z,99.90
2019-02-15T01:21:27.924Z,99.90
2019-02-15T01:23:56.703Z,99.90
2019-02-15T01:26:27.135Z,99.90
2019-02-15T01:28:57.560Z,99.90
2019-02-15T01:31:40.345Z,99.90
2019-02-15T01:34:19.657Z,99.90
2019-02-15T01:36:58.842Z,99.90
2019-02-15T01:39:41.338Z,99.90
2019-02-15T01:42:14.535Z,99.90
2019-02-15T01:44:48.793Z,99.90
2019-02-15T01:47:18.523Z,99.90
2019-02-15T01:49:47.281Z,99.90
2019-02-15T01:52:15.956Z,99.90
2019-02-15T01:54:44.747Z,99.90
2019-02-15T01:57:16.547Z,99.90
2019-02-15T01:59:46.827Z,99.90
2019-02-15T02:02:15.929Z,99.90
2019-02-15T02:04:44.755Z,99.90
2019-02-15T02:07:13.615Z,99.90
2019-02-15T02:09:42.371Z,99.90
2019-02-15T02:12:11.784Z,99.90
2019-02-15T02:14:40.561Z,99.90
2019-02-15T02:17:09.326Z,99.90
2019-02-15T02:19:38.149Z,99.90
2019-02-15T02:22:06.961Z,99.90
2019-02-15T02:24:35.731Z,99.90
2019-02-15T02:27:04.591Z,99.90
2019-02-15T02:29:33.571Z,99.90
2019-02-15T02:32:02.365Z,99.90
2019-02-15T02:34:31.081Z,99.90
2019-02-15T02:36:59.768Z,99.90
2019-02-15T02:39:28.507Z,99.90
2019-02-15T02:41:58.813Z,99.90
2019-02-15T02:44:27.572Z,99.90
2019-02-15T02:46:56.430Z,99.90
2019-02-15T02:49:25.159Z,99.90
2019-02-15T02:51:53.838Z,99.90
2019-02-15T02:54:22.518Z,99.90
2019-02-15T02:56:51.209Z,99.90
2019-02-15T02:59:19.917Z,99.90
2019-02-15T03:01:48.740Z,99.90
2019-02-15T03:04:17.463Z,99.90
2019-02-15T03:06:46.317Z,99.90
2019-02-15T03:09:14.946Z,99.90
2019-02-15T03:11:43.948Z,99.90
2019-02-15T03:14:12.714Z,99.90
2019-02-15T03:16:41.596Z,99.90
2019-02-15T03:19:10.371Z,99.90
2019-02-15T03:21:39.130Z,99.90
2019-02-15T03:24:09.657Z,99.90
2019-02-15T03:26:38.505Z,99.90
2019-02-15T03:29:07.204Z,99.90
2019-02-15T03:31:35.910Z,99.90
2019-02-15T03:34:04.801Z,99.90
2019-02-15T03:36:35.360Z,99.90
2019-02-15T03:39:07.414Z,99.90
2019-02-15T03:41:36.150Z,99.90
2019-02-15T03:44:04.841Z,99.90
2019-02-15T03:46:33.584Z,99.90
2019-02-15T03:49:02.420Z,99.90
2019-02-15T03:51:31.203Z,99.90
2019-02-15T03:54:00.008Z,99.90
2019-02-15T03:56:28.812Z,99.90
2019-02-15T03:58:57.513Z,99.90
2019-02-15T04:01:26.588Z,99.90
2019-02-15T04:03:55.360Z,99.90
2019-02-15T04:06:24.048Z,99.90
2019-02-15T04:08:52.850Z,99.90
2019-02-15T04:11:24.680Z,99.90
2019-02-15T04:13:53.530Z,99.90
2019-02-15T04:16:22.206Z,99.90
2019-02-15T04:18:52.616Z,99.90
2019-02-15T04:21:23.924Z,99.90
2019-02-15T04:23:52.777Z,99.90
2019-02-15T04:26:21.627Z,99.90
2019-02-15T04:28:50.691Z,99.90
2019-02-15T04:31:19.467Z,99.90
2019-02-15T04:33:48.287Z,99.90
2019-02-15T04:36:16.942Z,99.90
2019-02-15T04:38:45.755Z,99.90
2019-02-15T04:41:14.716Z,99.90
2019-02-15T04:43:43.525Z,99.90
2019-02-15T04:46:12.238Z,99.90
2019-02-15T04:48:41.018Z,99.90
2019-02-15T04:51:09.864Z,99.90
2019-02-15T04:53:38.745Z,99.90
2019-02-15T04:56:07.469Z,99.90
2019-02-15T04:58:36.399Z,99.90
2019-02-15T05:01:05.406Z,99.90
2019-02-15T05:03:34.231Z,99.90
2019-02-15T05:06:02.946Z,99.90
2019-02-15T05:08:31.723Z,99.90
2019-02-15T05:11:00.400Z,99.90
2019-02-15T05:13:29.240Z,99.90
2019-02-15T05:15:57.985Z,99.90
2019-02-15T05:18:26.808Z,99.90
2019-02-15T05:20:55.514Z,99.90
2019-02-15T05:23:24.444Z,99.90
2019-02-15T05:25:53.079Z,99.90
2019-02-15T05:28:21.805Z,99.90
2019-02-15T05:30:50.693Z,99.90
2019-02-15T05:33:19.576Z,99.90
2019-02-15T05:35:48.311Z,99.90
2019-02-15T05:38:16.979Z,99.90
2019-02-15T05:40:45.897Z,99.90
2019-02-15T05:43:14.671Z,99.90
2019-02-15T05:45:43.327Z,99.90
2019-02-15T05:48:11.990Z,99.90
2019-02-15T05:50:40.790Z,99.90
2019-02-15T05:53:09.539Z,99.90
2019-02-15T05:55:38.220Z,99.90
2019-02-15T05:58:06.959Z,99.90
2019-02-15T06:00:37.275Z,99.90
2019-02-15T06:03:08.366Z,99.90
2019-02-15T06:05:36.775Z,99.90
2019-02-15T06:08:05.453Z,99.90
2019-02-15T06:10:35.142Z,99.90
2019-02-15T06:13:04.044Z,99.90
2019-02-15T06:15:32.715Z,99.90
2019-02-15T06:18:01.383Z,99.90
2019-02-15T06:20:30.267Z,99.90
2019-02-15T06:22:58.878Z,99.90
2019-02-15T06:25:27.718Z,99.90
2019-02-15T06:27:59.236Z,99.90
2019-02-15T06:30:28.116Z,99.90
2019-02-15T06:32:56.825Z,99.90
2019-02-15T06:35:25.752Z,99.90
2019-02-15T06:37:54.701Z,99.90
2019-02-15T06:40:23.550Z,99.90
2019-02-15T06:42:54.002Z,99.90
2019-02-15T06:45:25.722Z,99.90
2019-02-15T06:47:57.095Z,99.90
2019-02-15T06:50:25.240Z,99.90
2019-02-15T06:52:54.028Z,99.90
2019-02-15T06:55:28.517Z,99.90
2019-02-15T06:57:57.282Z,99.90
2019-02-15T07:00:33.456Z,99.90
2019-02-15T07:03:14.851Z,99.90
2019-02-15T07:06:05.331Z,99.90
2019-02-15T07:09:01.614Z,99.90
2019-02-15T07:11:40.763Z,99.90
2019-02-15T07:14:09.938Z,99.90
2019-02-15T07:18:23.332Z,99.90
2019-02-15T07:19:35.947Z,99.90
2019-02-15T07:21:52.082Z,99.90
2019-02-15T07:24:20.992Z,99.90
2019-02-15T07:26:50.220Z,99.90
2019-02-15T07:29:22.036Z,99.70
2019-02-15T07:31:50.865Z,99.70
2019-02-15T07:34:19.671Z,99.80
2019-02-15T07:36:48.442Z,99.70
2019-02-15T07:39:24.048Z,99.70
2019-02-15T07:41:52.800Z,99.50
2019-02-15T07:44:21.624Z,99.50
2019-02-15T07:46:50.528Z,99.50
2019-02-15T07:49:26.589Z,99.60
2019-02-15T07:51:49.578Z,99.70
2019-02-15T07:54:18.433Z,99.50
2019-02-15T07:56:47.222Z,99.30
2019-02-15T07:59:15.994Z,99.00
2019-02-15T08:01:44.892Z,98.70
2019-02-15T08:04:13.819Z,98.60
2019-02-15T08:06:44.207Z,98.30
2019-02-15T08:09:12.997Z,97.90
2019-02-15T08:11:41.873Z,97.80
2019-02-15T08:14:14.964Z,97.30
2019-02-15T08:16:41.092Z,97.40
2019-02-15T08:19:09.875Z,97.00
2019-02-15T08:21:38.601Z,96.70
2019-02-15T08:24:07.377Z,96.00
2019-02-15T08:26:36.159Z,96.20
2019-02-15T08:29:25.013Z,95.40
2019-02-15T08:31:53.864Z,95.00
2019-02-15T08:34:22.506Z,94.60
2019-02-15T08:36:51.336Z,94.20
2019-02-15T08:39:19.983Z,93.90
2019-02-15T08:42:00.702Z,93.80
2019-02-15T08:44:19.307Z,94.10
2019-02-15T08:46:48.295Z,94.00
2019-02-15T08:49:17.084Z,93.40
2019-02-15T08:51:45.862Z,93.10
2019-02-15T08:54:14.629Z,92.60
2019-02-15T08:56:43.251Z,92.40
2019-02-15T08:59:12.051Z,92.30
2019-02-15T09:01:40.720Z,92.30
2019-02-15T09:04:09.605Z,91.90
2019-02-15T09:06:38.284Z,91.70
2019-02-15T09:09:07.315Z,91.30
2019-02-15T09:11:37.618Z,91.30
2019-02-15T09:14:08.493Z,90.30
2019-02-15T09:16:51.023Z,90.20
2019-02-15T09:19:29.784Z,89.20
2019-02-15T09:21:56.915Z,88.70
2019-02-15T09:24:41.220Z,88.80
2019-02-15T09:27:16.246Z,87.90
2019-02-15T09:29:50.731Z,88.10
2019-02-15T09:32:31.869Z,89.00
2019-02-15T09:35:13.799Z,87.20
2019-02-15T09:37:51.413Z,87.50
2019-02-15T09:40:20.185Z,88.20
2019-02-15T09:42:49.072Z,87.70
2019-02-15T09:45:17.657Z,88.10
2019-02-15T09:47:46.370Z,87.40
2019-02-15T09:50:16.150Z,86.00
2019-02-15T09:52:44.828Z,86.50
2019-02-15T09:55:13.787Z,85.80
2019-02-15T09:57:42.554Z,84.60
2019-02-15T10:00:12.230Z,84.20
2019-02-15T10:02:43.014Z,83.10
2019-02-15T10:05:11.774Z,84.90
2019-02-15T10:07:40.694Z,85.80
2019-02-15T10:10:10.331Z,85.00
2019-02-15T10:12:38.989Z,85.80
2019-02-15T10:15:11.699Z,86.60
2019-02-15T10:17:40.435Z,86.10
2019-02-15T10:20:11.093Z,86.20
2019-02-15T10:22:39.958Z,85.40
2019-02-15T10:25:09.939Z,85.10
2019-02-15T10:27:38.901Z,84.40
2019-02-15T10:30:10.425Z,84.40
2019-02-15T10:32:39.376Z,83.40
2019-02-15T10:35:10.684Z,82.30
2019-02-15T10:37:39.375Z,82.50
2019-02-15T10:40:12.027Z,81.50
2019-02-15T10:42:40.888Z,79.90
2019-02-15T10:45:12.752Z,79.50
2019-02-15T10:47:41.431Z,80.20
2019-02-15T10:50:11.401Z,81.50
2019-02-15T10:52:40.197Z,81.90
2019-02-15T10:55:10.214Z,83.10
2019-02-15T10:57:38.932Z,83.80
2019-02-15T11:00:20.095Z,84.90
2019-02-15T11:02:48.374Z,86.20
2019-02-15T11:05:18.958Z,84.90
2019-02-15T11:07:48.099Z,84.10
2019-02-15T11:10:19.951Z,84.00
2019-02-15T11:12:48.610Z,85.80
2019-02-15T11:15:17.707Z,85.60
2019-02-15T11:17:46.628Z,84.90
2019-02-15T11:20:17.715Z,82.80
2019-02-15T11:22:46.511Z,81.60
2019-02-15T11:25:15.326Z,83.20
2019-02-15T11:27:44.118Z,84.00
2019-02-15T11:30:55.421Z,83.80
2019-02-15T11:33:27.387Z,83.80
2019-02-15T11:35:55.176Z,84.50
2019-02-15T11:38:24.071Z,85.10
2019-02-15T11:40:53.403Z,84.30
2019-02-15T11:43:22.167Z,84.10
2019-02-15T11:45:52.602Z,84.40
2019-02-15T11:48:23.922Z,84.20
2019-02-15T11:50:54.908Z,84.20
2019-02-15T11:53:23.390Z,83.40
2019-02-15T11:55:52.124Z,81.90
2019-02-15T11:58:20.882Z,80.60
2019-02-15T12:00:54.075Z,79.40
2019-02-15T12:03:22.820Z,78.20
2019-02-15T12:05:53.916Z,79.00
2019-02-15T12:08:22.724Z,79.40
2019-02-15T12:10:51.529Z,78.90
2019-02-15T12:13:20.481Z,79.40
2019-02-15T12:15:49.186Z,80.90
2019-02-15T12:18:18.200Z,81.90
2019-02-15T12:20:47.098Z,82.20
2019-02-15T12:23:16.253Z,79.90
2019-02-15T12:25:45.146Z,78.40
2019-02-15T12:28:13.925Z,79.00
2019-02-15T12:30:42.736Z,80.30
2019-02-15T12:33:11.506Z,81.00
2019-02-15T12:35:40.191Z,79.40
2019-02-15T12:38:08.937Z,76.20
2019-02-15T12:40:37.586Z,72.90
2019-02-15T12:43:08.746Z,70.40
2019-02-15T12:45:37.712Z,68.60
2019-02-15T12:48:06.556Z,66.50
2019-02-15T12:50:47.051Z,65.80
2019-02-15T12:53:15.750Z,66.60
2019-02-15T12:55:46.376Z,66.80
2019-02-15T12:58:15.292Z,66.70
2019-02-15T13:00:44.038Z,66.40
2019-02-15T13:03:12.847Z,65.90
2019-02-15T13:05:41.955Z,66.30
2019-02-15T13:08:10.856Z,66.50
2019-02-15T13:10:40.878Z,66.20
2019-02-15T13:13:09.759Z,66.40
2019-02-15T13:15:38.553Z,66.70
2019-02-15T13:18:07.371Z,66.10
2019-02-15T13:20:37.747Z,66.30
2019-02-15T13:23:06.606Z,66.40
2019-02-15T13:25:36.999Z,67.40
2019-02-15T13:28:05.772Z,68.30
2019-02-15T13:30:34.487Z,68.50
2019-02-15T13:33:03.294Z,70.20
2019-02-15T13:35:31.935Z,71.10
2019-02-15T13:38:00.817Z,72.30
2019-02-15T13:40:32.458Z,73.90
2019-02-15T13:43:01.255Z,74.10
2019-02-15T13:45:29.972Z,75.10
2019-02-15T13:47:58.653Z,77.40
2019-02-15T13:50:27.347Z,78.10
2019-02-15T13:52:56.032Z,78.60
2019-02-15T13:55:24.790Z,78.80
2019-02-15T13:57:55.486Z,79.70
2019-02-15T14:00:23.874Z,79.60
2019-02-15T14:02:52.688Z,80.80
2019-02-15T14:05:21.397Z,81.90
2019-02-15T14:07:50.262Z,82.60
2019-02-15T14:10:19.060Z,83.30
2019-02-15T14:12:48.056Z,84.40
2019-02-15T14:15:19.591Z,85.60
2019-02-15T14:17:48.879Z,86.50
2019-02-15T14:20:18.023Z,87.50
2019-02-15T14:22:46.695Z,87.80
2019-02-15T14:25:15.435Z,88.30
2019-02-15T14:27:44.226Z,89.30
2019-02-15T14:30:14.016Z,89.50
2019-02-15T14:32:42.796Z,89.50
2019-02-15T14:35:14.877Z,89.90
2019-02-15T14:37:43.754Z,90.10
2019-02-15T14:40:13.872Z,90.30
2019-02-15T14:42:52.136Z,90.50
2019-02-15T14:45:16.563Z,90.70
2019-02-15T14:47:54.676Z,90.80
2019-02-15T14:50:20.144Z,91.00
2019-02-15T14:52:48.642Z,91.20
2019-02-15T14:55:17.556Z,91.70
2019-02-15T14:57:47.059Z,92.00
2019-02-15T15:00:16.216Z,92.30
2019-02-15T15:02:46.123Z,92.50
2019-02-15T15:05:14.965Z,92.80
2019-02-15T15:07:43.738Z,93.00
2019-02-15T15:10:12.605Z,93.10
2019-02-15T15:12:42.893Z,93.10
2019-02-15T15:15:16.353Z,93.00
2019-02-15T15:17:45.065Z,93.20
2019-02-15T15:20:15.014Z,93.40
2019-02-15T15:22:43.777Z,93.80
2019-02-15T15:25:14.067Z,94.00
2019-02-15T15:27:52.944Z,94.10
2019-02-15T15:30:36.856Z,94.50
2019-02-15T15:33:45.583Z,94.60
2019-02-15T15:36:14.300Z,94.70
2019-02-15T15:38:43.087Z,95.20
2019-02-15T15:41:11.842Z,95.40
2019-02-15T15:43:40.639Z,95.50
2019-02-15T15:46:09.343Z,95.60
2019-02-15T15:48:38.116Z,95.90
2019-02-15T15:51:06.949Z,96.10
2019-02-15T15:53:35.567Z,96.20
2019-02-15T15:56:04.327Z,96.30
2019-02-15T15:58:32.934Z,96.50
2019-02-15T16:01:01.662Z,96.40
2019-02-15T16:03:30.345Z,96.60
2019-02-15T16:06:24.405Z,96.70
2019-02-15T16:08:48.852Z,96.90
2019-02-15T16:11:17.658Z,96.90
2019-02-15T16:13:46.593Z,96.90
2019-02-15T16:16:15.316Z,97.00
2019-02-15T16:18:43.935Z,96.90
2019-02-15T16:21:12.744Z,97.00
2019-02-15T16:23:43.813Z,96.90
2019-02-15T16:26:22.696Z,97.10
2019-02-15T16:28:51.353Z,97.10
2019-02-15T16:31:20.177Z,97.00
2019-02-15T16:33:49.005Z,96.90
2019-02-15T16:36:20.636Z,96.90
2019-02-15T16:39:00.589Z,96.90
2019-02-15T16:41:44.489Z,96.70
2019-02-15T16:44:19.957Z,96.70
2019-02-15T16:46:56.459Z,96.90
2019-02-15T16:49:29.075Z,97.00
2019-02-15T16:52:03.296Z,97.00
2019-02-15T16:54:33.967Z,96.80
2019-02-15T16:57:12.436Z,96.80
2019-02-15T16:59:48.138Z,96.90
2019-02-15T17:05:24.109Z,96.90
2019-02-15T17:07:57.977Z,96.90
2019-02-15T17:10:30.483Z,97.00
2019-02-15T17:13:18.040Z,97.20
2019-02-15T17:18:37.027Z,97.30
2019-02-15T17:20:09.325Z,97.20
2019-02-15T17:21:10.619Z,97.10
2019-02-15T17:23:44.460Z,97.10
2019-02-15T17:26:16.273Z,97.20
2019-02-15T17:28:45.321Z,97.30
2019-02-15T17:31:15.197Z,97.40
2019-02-15T17:33:51.745Z,97.50
2019-02-15T17:36:20.749Z,97.70
2019-02-15T17:38:49.426Z,97.70
2019-02-15T17:41:21.292Z,97.80
2019-02-15T17:43:58.191Z,98.00
2019-02-15T17:46:26.957Z,97.90
2019-02-15T17:49:00.832Z,98.10
2019-02-15T17:51:26.277Z,98.20
2019-02-15T17:53:55.181Z,98.10
2019-02-15T17:56:26.512Z,98.00
2019-02-15T17:58:58.197Z,98.10
2019-02-15T18:01:31.419Z,98.10
2019-02-15T18:04:03.250Z,98.00
2019-02-15T18:06:32.225Z,97.70
2019-02-15T18:09:01.009Z,97.70
2019-02-15T18:11:33.111Z,97.70
2019-02-15T18:14:01.907Z,97.90
2019-02-15T18:16:40.100Z,97.70
2019-02-15T18:19:10.597Z,97.70
2019-02-15T18:21:41.544Z,97.60
2019-02-15T18:24:14.129Z,97.60
2019-02-15T18:26:42.886Z,97.60
2019-02-15T18:29:14.954Z,97.70
2019-02-15T18:31:43.850Z,97.90
2019-02-15T18:34:15.239Z,98.00
2019-02-15T18:36:44.457Z,97.90
2019-02-15T18:39:20.286Z,98.00
2019-02-15T18:41:51.702Z,97.70
2019-02-15T18:44:31.775Z,97.90
2019-02-15T18:47:00.220Z,97.90
2019-02-15T18:49:35.977Z,97.80
2019-02-15T18:52:23.861Z,97.80
2019-02-15T18:54:54.569Z,97.70
2019-02-15T18:57:26.448Z,97.80
2019-02-15T18:59:55.226Z,97.90
2019-02-15T19:02:29.959Z,97.90
2019-02-15T19:04:58.741Z,97.90
2019-02-15T19:07:27.591Z,98.10
2019-02-15T19:09:56.265Z,98.10
2019-02-15T19:12:27.849Z,98.20
2019-02-15T19:14:56.879Z,98.30
2019-02-15T19:17:26.916Z,98.10
2019-02-15T19:19:59.223Z,98.30
2019-02-15T19:22:27.899Z,98.40
2019-02-15T19:24:59.637Z,98.50
2019-02-15T19:27:28.439Z,98.30
2019-02-15T19:30:00.014Z,98.40
2019-02-15T19:32:28.877Z,98.50
2019-02-15T19:35:08.392Z,98.60
2019-02-15T19:37:37.366Z,98.90
2019-02-15T19:40:12.256Z,98.60
2019-02-15T19:42:45.325Z,98.80
2019-02-15T19:45:14.213Z,98.80
2019-02-15T19:47:44.187Z,98.60
2019-02-15T19:50:17.841Z,98.50
2019-02-15T19:52:48.514Z,98.50
2019-02-15T19:55:17.608Z,98.60
2019-02-15T19:57:49.460Z,98.60
2019-02-15T20:00:22.731Z,98.60
2019-02-15T20:02:57.074Z,98.70
2019-02-15T20:05:23.517Z,98.50
2019-02-15T20:08:05.017Z,98.70
2019-02-15T20:10:34.031Z,98.60
2019-02-15T20:13:03.831Z,98.70
2019-02-15T20:15:32.784Z,98.80
2019-02-15T20:18:01.628Z,98.90
2019-02-15T20:20:33.082Z,99.00
2019-02-15T20:23:02.288Z,99.00
2019-02-15T20:25:30.960Z,99.20
2019-02-15T20:27:59.833Z,99.00
2019-02-15T20:30:28.778Z,99.10
2019-02-15T20:32:57.568Z,99.00
2019-02-15T20:35:28.024Z,99.10
2019-02-15T20:37:58.478Z,99.10
2019-02-15T20:40:28.807Z,99.00
2019-02-15T20:43:01.048Z,99.00
2019-02-15T20:45:29.884Z,99.00
2019-02-15T20:47:58.623Z,99.00
2019-02-15T20:50:27.322Z,99.00
2019-02-15T20:52:57.910Z,99.00
2019-02-15T20:55:26.655Z,99.10
2019-02-15T20:57:55.433Z,99.20
2019-02-15T21:00:29.184Z,99.30
2019-02-15T21:02:59.651Z,99.30
2019-02-15T21:05:28.652Z,99.30
2019-02-15T21:07:58.292Z,99.30
2019-02-15T21:10:26.923Z,99.30
2019-02-15T21:12:55.763Z,99.20
2019-02-15T21:15:24.597Z,99.30
2019-02-15T21:17:53.461Z,99.30
2019-02-15T21:20:24.440Z,99.40
2019-02-15T21:22:52.806Z,99.30
2019-02-15T21:25:21.672Z,99.40
2019-02-15T21:27:50.447Z,99.50
2019-02-15T21:30:19.655Z,99.60
2019-02-15T21:32:48.353Z,99.70
2019-02-15T21:35:20.015Z,99.80
2019-02-15T21:37:49.054Z,99.80
2019-02-15T21:40:18.771Z,99.90
2019-02-15T21:42:47.638Z,99.90
2019-02-15T21:45:16.660Z,99.90
2019-02-15T21:47:45.419Z,99.90
2019-02-15T21:50:17.577Z,99.90
2019-02-15T21:52:44.773Z,99.90
2019-02-15T21:55:15.646Z,99.90
2019-02-15T21:57:44.542Z,99.90
2019-02-15T22:00:28.462Z,99.90
2019-02-15T22:02:58.798Z,99.90
2019-02-15T22:05:27.722Z,99.90
2019-02-15T22:07:56.571Z,99.90
2019-02-15T22:10:25.408Z,99.90
2019-02-15T22:12:54.430Z,99.90
2019-02-15T22:15:23.352Z,99.90
2019-02-15T22:17:52.262Z,99.90
2019-02-15T22:20:26.694Z,99.90
2019-02-15T22:22:51.725Z,99.90
2019-02-15T22:25:20.442Z,99.90
2019-02-15T22:27:49.218Z,99.90
2019-02-15T22:30:19.511Z,99.90
2019-02-15T22:32:48.268Z,99.90
2019-02-15T22:35:21.362Z,99.90
2019-02-15T22:37:50.105Z,99.90
2019-02-15T22:40:26.854Z,99.90
2019-02-15T22:42:56.157Z,99.90
2019-02-15T22:45:24.982Z,99.90
2019-02-15T22:47:53.683Z,99.90
2019-02-15T22:50:22.517Z,99.90
2019-02-15T22:52:54.513Z,99.90
2019-02-15T22:55:23.495Z,99.90
2019-02-15T22:57:52.271Z,99.90
2019-02-15T23:00:31.520Z,99.90
2019-02-15T23:03:00.315Z,99.90
2019-02-15T23:05:29.255Z,99.90
2019-02-15T23:07:58.142Z,99.90
2019-02-15T23:10:26.878Z,99.90
2019-02-15T23:12:55.725Z,99.90
2019-02-15T23:15:24.492Z,99.90
2019-02-15T23:17:56.089Z,99.90
2019-02-15T23:20:24.872Z,99.90
2019-02-15T23:22:53.619Z,99.90
2019-02-15T23:25:22.441Z,99.90
2019-02-15T23:27:51.121Z,99.90
2019-02-15T23:30:20.201Z,99.90
2019-02-15T23:32:48.916Z,99.90
2019-02-15T23:35:17.632Z,99.90
2019-02-15T23:37:46.378Z,99.90
2019-02-15T23:40:14.955Z,99.90
2019-02-15T23:42:43.595Z,99.90
2019-02-15T23:45:12.496Z,99.90
2019-02-15T23:47:41.273Z,99.90
2019-02-15T23:50:10.234Z,99.90
2019-02-15T23:52:39.049Z,99.90
2019-02-15T23:55:07.830Z,99.90
2019-02-15T23:57:36.613Z,99.90
